createdAt,value
2023-01-03T00:00:59.198Z,62.03
2023-01-03T00:05:59.420Z,62.56
2023-01-03T00:10:58.160Z,62.52
2023-01-03T00:15:57.257Z,62.71
2023-01-03T00:20:56.054Z,62.73
2023-01-03T00:25:56.195Z,62.82
2023-01-03T00:30:55.020Z,62.77
2023-01-03T00:35:53.776Z,62.71
2023-01-03T00:40:52.761Z,62.68
2023-01-03T00:45:53.125Z,62.38
2023-01-03T00:50:52.185Z,62.74
2023-01-03T00:55:51.288Z,62.78
2023-01-03T01:00:50.249Z,63.08
2023-01-03T01:05:50.509Z,62.76
2023-01-03T01:11:02.919Z,62.97
2023-01-03T01:16:06.646Z,62.75
2023-01-03T01:21:08.407Z,62.92
2023-01-03T01:26:08.869Z,62.84
2023-01-03T01:31:09.053Z,62.86
2023-01-03T01:36:10.512Z,63.23
2023-01-03T01:41:09.369Z,62.88
2023-01-03T01:46:17.471Z,63.06
2023-01-03T01:51:19.472Z,62.96
2023-01-03T01:56:22.693Z,62.77
2023-01-03T02:01:23.329Z,62.51
2023-01-03T02:06:25.470Z,63.18
2023-01-03T02:11:32.689Z,62.96
2023-01-03T02:16:48.508Z,62.66
2023-01-03T02:22:37.684Z,62.45
2023-01-03T02:28:21.009Z,62.66
2023-01-03T02:33:31.375Z,62.49
2023-01-03T02:38:42.634Z,62.43
2023-01-03T02:43:49.061Z,62.62
2023-01-03T02:48:55.559Z,62.77
2023-01-03T02:53:54.650Z,62.89
2023-01-03T02:58:58.025Z,63.18
2023-01-03T03:03:59.440Z,62.90
2023-01-03T03:08:58.496Z,63.08
2023-01-03T03:14:01.876Z,63.21
2023-01-03T03:19:03.386Z,63.38
2023-01-03T03:24:26.512Z,63.27
2023-01-03T03:29:27.991Z,63.64
2023-01-03T03:34:32.219Z,63.58
2023-01-03T03:39:50.152Z,63.67
2023-01-03T03:45:02.982Z,63.95
2023-01-03T03:50:07.618Z,64.08
2023-01-03T03:55:13.206Z,64.24
2023-01-03T04:00:17.385Z,64.34
2023-01-03T04:05:20.610Z,63.89
2023-01-03T04:10:20.832Z,63.94
2023-01-03T04:15:19.965Z,64.11
2023-01-03T04:20:20.707Z,64.31
2023-01-03T04:25:19.493Z,64.30
2023-01-03T04:30:18.620Z,64.36
2023-01-03T04:35:17.489Z,64.33
2023-01-03T04:40:17.834Z,64.68
2023-01-03T04:45:17.253Z,64.91
2023-01-03T04:50:16.157Z,65.10
2023-01-03T04:55:14.960Z,65.46
2023-01-03T05:00:16.264Z,65.74
2023-01-03T05:05:15.165Z,66.18
2023-01-03T05:10:14.071Z,66.11
2023-01-03T05:15:14.381Z,66.25
2023-01-03T05:20:30.801Z,66.43
2023-01-03T05:25:47.321Z,66.35
2023-01-03T05:30:47.496Z,66.72
2023-01-03T05:35:48.583Z,66.41
2023-01-03T05:40:47.567Z,66.28
2023-01-03T05:45:51.651Z,66.07
2023-01-03T05:50:52.412Z,65.86
2023-01-03T05:55:51.690Z,66.21
2023-01-03T06:00:51.929Z,66.62
2023-01-03T06:05:50.780Z,66.16
2023-01-03T06:10:49.630Z,65.99
2023-01-03T06:16:08.683Z,66.36
2023-01-03T06:21:09.256Z,66.09
2023-01-03T06:26:08.190Z,65.90
2023-01-03T06:31:07.666Z,65.74
2023-01-03T06:36:10.601Z,65.60
2023-01-03T06:41:09.445Z,65.47
2023-01-03T06:46:25.958Z,65.54
2023-01-03T06:51:44.910Z,66.08
2023-01-03T06:56:43.691Z,66.76
2023-01-03T07:01:42.898Z,67.15
2023-01-03T07:06:43.493Z,66.79
2023-01-03T07:11:43.216Z,66.34
2023-01-03T07:16:45.398Z,66.42
2023-01-03T07:21:46.268Z,67.37
2023-01-03T07:26:46.961Z,67.41
2023-01-03T07:31:45.829Z,67.85
2023-01-03T07:36:46.080Z,69.72
2023-01-03T07:42:02.368Z,70.59
2023-01-03T07:47:01.256Z,71.08
2023-01-03T07:52:01.544Z,70.36
2023-01-03T07:57:01.111Z,70.77
2023-01-03T08:02:00.042Z,71.03
2023-01-03T08:06:59.068Z,70.84
2023-01-03T08:12:16.559Z,71.10
2023-01-03T08:17:15.369Z,70.61
2023-01-03T08:22:14.286Z,70.97
2023-01-03T08:27:14.664Z,71.55
2023-01-03T08:32:14.044Z,71.01
2023-01-03T08:37:17.052Z,69.05
2023-01-03T08:42:21.226Z,69.88
2023-01-03T08:47:20.827Z,69.16
2023-01-03T08:52:19.707Z,70.72
2023-01-03T08:57:20.074Z,69.56
2023-01-03T09:02:18.995Z,71.51
2023-01-03T09:07:17.918Z,71.10
2023-01-03T09:12:16.701Z,69.00
2023-01-03T09:17:16.863Z,69.29
2023-01-03T09:22:15.620Z,67.27
2023-01-03T09:27:14.439Z,66.57
2023-01-03T09:32:13.335Z,65.59
2023-01-03T09:37:13.606Z,64.67
2023-01-03T09:42:38.390Z,62.54
2023-01-03T09:47:40.314Z,59.91
2023-01-03T09:53:05.281Z,59.18
2023-01-03T09:58:21.834Z,56.99
2023-01-03T10:03:54.524Z,56.54
2023-01-03T10:09:08.165Z,56.72
2023-01-03T10:14:30.107Z,55.20
2023-01-03T10:19:50.825Z,56.03
2023-01-03T10:24:57.130Z,56.81
2023-01-03T10:30:01.487Z,54.87
2023-01-03T10:35:18.581Z,54.41
2023-01-03T10:40:19.200Z,52.92
2023-01-03T10:45:20.898Z,51.21
2023-01-03T10:50:23.442Z,49.76
2023-01-03T10:55:26.530Z,48.17
2023-01-03T11:00:29.848Z,48.20
2023-01-03T11:05:32.199Z,46.85
2023-01-03T11:10:38.287Z,46.33
2023-01-03T11:15:39.753Z,45.12
2023-01-03T11:20:45.189Z,46.02
2023-01-03T11:25:52.866Z,46.54
2023-01-03T11:30:59.295Z,47.45
2023-01-03T11:36:11.224Z,46.64
2023-01-03T11:41:27.635Z,46.69
2023-01-03T11:46:47.277Z,47.24
2023-01-03T11:51:54.012Z,46.87
2023-01-03T11:56:54.635Z,45.47
2023-01-03T12:02:17.841Z,45.43
2023-01-03T12:07:47.058Z,44.36
2023-01-03T12:13:06.284Z,44.65
2023-01-03T12:18:14.076Z,44.78
2023-01-03T12:23:20.486Z,44.23
2023-01-03T12:28:27.653Z,43.23
2023-01-03T12:33:32.674Z,43.99
2023-01-03T12:38:37.615Z,43.46
2023-01-03T12:43:52.490Z,42.92
2023-01-03T12:48:59.540Z,43.54
2023-01-03T12:54:17.821Z,43.97
2023-01-03T12:59:39.378Z,43.38
2023-01-03T13:04:43.246Z,43.28
2023-01-03T13:09:46.965Z,43.43
2023-01-03T13:14:55.479Z,43.78
2023-01-03T13:19:57.472Z,43.58
2023-01-03T13:24:56.413Z,44.44
2023-01-03T13:30:02.338Z,44.72
2023-01-03T13:35:33.459Z,44.49
2023-01-03T13:41:16.159Z,44.03
2023-01-03T13:45:56.324Z,43.85
2023-01-03T13:51:09.091Z,43.07
2023-01-03T13:56:24.794Z,42.58
2023-01-03T14:01:39.168Z,42.71
2023-01-03T14:07:06.388Z,42.42
2023-01-03T14:12:43.552Z,42.06
2023-01-03T14:17:48.501Z,42.06
2023-01-03T14:22:50.494Z,41.89
2023-01-03T14:27:49.599Z,41.99
2023-01-03T14:32:49.859Z,42.72
2023-01-03T14:37:48.814Z,43.13
2023-01-03T14:42:48.201Z,43.57
2023-01-03T14:47:47.926Z,44.01
2023-01-03T14:52:52.962Z,44.73
2023-01-03T14:57:52.880Z,45.31
2023-01-03T15:02:52.309Z,46.39
2023-01-03T15:07:53.108Z,47.17
2023-01-03T15:13:00.745Z,48.01
2023-01-03T15:18:05.235Z,49.48
2023-01-03T15:23:06.121Z,50.66
2023-01-03T15:28:24.592Z,51.80
2023-01-03T15:33:33.237Z,52.52
2023-01-03T15:38:37.652Z,52.78
2023-01-03T15:43:39.339Z,53.40
2023-01-03T15:48:38.473Z,53.43
2023-01-03T15:53:44.591Z,53.71
2023-01-03T15:58:48.042Z,53.66
2023-01-03T16:03:58.150Z,53.84
2023-01-03T16:08:58.423Z,54.48
2023-01-03T16:13:59.747Z,54.70
2023-01-03T16:18:59.296Z,54.58
2023-01-03T16:23:59.676Z,54.81
2023-01-03T16:28:59.529Z,55.04
2023-01-03T16:34:09.127Z,54.93
2023-01-03T16:39:16.457Z,54.95
2023-01-03T16:44:15.245Z,55.22
2023-01-03T16:49:14.212Z,55.60
2023-01-03T16:54:16.540Z,55.42
2023-01-03T16:59:16.178Z,55.72
2023-01-03T17:04:15.174Z,55.83
2023-01-03T17:09:17.620Z,55.58
2023-01-03T17:14:20.093Z,55.94
2023-01-03T17:20:01.906Z,55.73
2023-01-03T17:24:41.539Z,55.96
2023-01-03T17:29:41.563Z,55.73
2023-01-03T17:34:40.336Z,56.17
2023-01-03T17:39:40.641Z,56.49
2023-01-03T17:44:39.536Z,56.82
2023-01-03T17:49:37.277Z,56.60
2023-01-03T17:54:40.475Z,56.63
2023-01-03T17:59:42.241Z,56.56
2023-01-03T18:05:14.214Z,56.87
2023-01-03T18:10:06.666Z,57.16
2023-01-03T18:15:18.220Z,57.27
2023-01-03T18:20:31.860Z,57.39
2023-01-03T18:25:33.087Z,57.54
2023-01-03T18:30:35.093Z,57.82
2023-01-03T18:35:39.054Z,58.08
2023-01-03T18:40:43.641Z,58.32
2023-01-03T18:45:44.174Z,58.39
2023-01-03T18:50:43.914Z,58.77
2023-01-03T18:55:43.324Z,58.83
2023-01-03T19:00:43.732Z,59.26
2023-01-03T19:05:42.744Z,59.44
2023-01-03T19:10:41.723Z,59.61
2023-01-03T19:15:40.558Z,59.95
2023-01-03T19:20:40.894Z,59.92
2023-01-03T19:25:39.866Z,60.26
2023-01-03T19:30:40.511Z,60.71
2023-01-03T19:35:40.785Z,60.65
2023-01-03T19:40:41.471Z,60.57
2023-01-03T19:45:42.562Z,60.76
2023-01-03T19:50:42.840Z,61.02
2023-01-03T19:55:44.132Z,61.29
2023-01-03T20:00:46.010Z,61.33
2023-01-03T20:05:49.295Z,61.25
2023-01-03T20:10:53.845Z,61.54
2023-01-03T20:15:58.072Z,61.48
2023-01-03T20:21:02.342Z,61.58
2023-01-03T20:26:06.885Z,61.35
2023-01-03T20:31:08.817Z,61.19
2023-01-03T20:36:23.136Z,61.30
2023-01-03T20:41:37.590Z,61.00
2023-01-03T20:46:43.574Z,61.05
2023-01-03T20:51:46.129Z,61.00
2023-01-03T20:56:48.268Z,61.18
2023-01-03T21:01:50.836Z,61.03
2023-01-03T21:06:52.927Z,61.10
2023-01-03T21:11:52.708Z,61.35
2023-01-03T21:16:54.011Z,60.89
2023-01-03T21:22:07.046Z,60.61
2023-01-03T21:27:06.506Z,60.69
2023-01-03T21:32:13.233Z,60.87
2023-01-03T21:37:19.272Z,60.73
2023-01-03T21:42:35.607Z,60.47
2023-01-03T21:47:34.389Z,61.10
2023-01-03T21:52:34.704Z,61.31
2023-01-03T21:57:35.547Z,60.66
2023-01-03T22:02:56.216Z,60.69
2023-01-03T22:08:01.119Z,60.93
2023-01-03T22:13:02.265Z,61.77
2023-01-03T22:18:01.132Z,61.73
2023-01-03T22:23:01.379Z,61.97
2023-01-03T22:28:00.165Z,62.15
2023-01-03T22:32:59.712Z,63.13
2023-01-03T22:37:58.521Z,64.36
2023-01-03T22:42:58.699Z,63.95
2023-01-03T22:47:59.268Z,64.51
2023-01-03T22:52:58.104Z,65.01
2023-01-03T22:57:58.193Z,64.17
2023-01-03T23:02:57.103Z,64.40
2023-01-03T23:07:55.886Z,64.18
2023-01-03T23:13:00.822Z,63.87
2023-01-03T23:18:01.022Z,63.83
2023-01-03T23:23:04.416Z,63.71
2023-01-03T23:28:02.960Z,63.30
2023-01-03T23:33:03.076Z,63.83
2023-01-03T23:38:01.846Z,63.82
2023-01-03T23:43:00.951Z,63.77
2023-01-03T23:48:00.337Z,63.38
2023-01-03T23:53:00.782Z,63.62
2023-01-03T23:57:59.547Z,63.63
